Aviation Digital Data Service (ADDS)

Output produced by METARs form (2239 UTC 30 March 2017)
found at http://www.aviationweather.gov/adds/metars/
 
ZMUB 302230Z 00000MPS CAVOK M09/M12 Q1026 NOSIG RMK QFE661.5 80
TAF ZMUB 301640Z 3018/3124 VRB02MPS 9999 SCT100 TNM09/3022Z TX12/3107Z